Time;durP1;ratioP1;P1;durP2;ratioP2;P2;SDS_P1;SDS_P2;PMS_P1;PMS_P2;Temp;Humidity;BMP_temperature;BMP_pressure;BME280_temperature;BME280_humidity;BME280_pressure;Samples;Min_cycle;Max_cycle;Signal;HPM_P1;HPM_P2
2023/03/12 00:01:25;;;;;;;13.93;9.80;;;-0.80;99.90;;;;;;5013641;28;20197;-86
2023/03/12 00:03:56;;;;;;;12.82;9.48;;;-0.80;99.90;;;;;;5025151;28;20232;-87
2023/03/12 00:06:23;;;;;;;13.35;9.25;;;-0.80;99.90;;;;;;5009103;28;20204;-87
2023/03/12 00:08:50;;;;;;;9.45;7.65;;;-0.80;99.90;;;;;;5018407;28;20209;-88
2023/03/12 00:11:20;;;;;;;18.98;11.30;;;-0.90;99.90;;;;;;5024321;28;20527;-88
2023/03/12 00:13:55;;;;;;;12.50;9.32;;;-0.80;99.90;;;;;;5028304;28;20205;-88
2023/03/12 00:16:23;;;;;;;11.65;9.30;;;-0.80;99.90;;;;;;5024293;28;20505;-89
2023/03/12 00:18:53;;;;;;;13.93;9.88;;;-0.80;99.90;;;;;;5025269;28;20224;-87
2023/03/12 00:21:21;;;;;;;12.48;9.50;;;-0.80;99.90;;;;;;5031572;28;20203;-87
2023/03/12 00:23:49;;;;;;;14.75;9.95;;;-0.80;99.90;;;;;;5009518;28;20244;-90
2023/03/12 00:26:18;;;;;;;15.95;10.43;;;-0.80;99.90;;;;;;5014604;28;20244;-86
2023/03/12 00:28:47;;;;;;;12.88;8.25;;;-0.80;99.90;;;;;;5018472;28;20216;-90
2023/03/12 00:31:21;;;;;;;12.75;9.20;;;-0.80;99.90;;;;;;5035486;28;20201;-85
2023/03/12 00:33:49;;;;;;;12.10;9.32;;;-0.90;99.90;;;;;;5035668;28;20193;-86
2023/03/12 00:36:17;;;;;;;13.18;8.73;;;-0.80;99.90;;;;;;5034806;28;20197;-85
2023/03/12 00:38:44;;;;;;;11.30;8.90;;;-0.90;99.90;;;;;;5027097;28;20304;-88
2023/03/12 00:41:11;;;;;;;10.30;8.35;;;-0.80;99.90;;;;;;5014573;28;20513;-89
2023/03/12 00:43:39;;;;;;;11.80;8.57;;;-0.80;99.90;;;;;;5035013;28;20228;-89
2023/03/12 00:46:06;;;;;;;17.80;9.65;;;-0.60;99.90;;;;;;5025663;28;20213;-89
2023/03/12 00:48:33;;;;;;;10.15;7.80;;;-0.70;99.90;;;;;;5023115;28;20485;-86
2023/03/12 00:51:00;;;;;;;12.88;10.32;;;-0.60;99.90;;;;;;5022475;28;20209;-84
2023/03/12 00:53:28;;;;;;;9.38;7.90;;;-0.80;99.90;;;;;;5004822;28;20209;-85
2023/03/12 00:55:55;;;;;;;7.97;7.18;;;-0.80;99.90;;;;;;5021987;28;20285;-85
2023/03/12 00:58:22;;;;;;;10.85;8.50;;;-0.70;99.90;;;;;;5025848;28;20189;-88
2023/03/12 01:00:51;;;;;;;10.50;8.25;;;-0.90;99.90;;;;;;5026692;28;20204;-90
2023/03/12 01:03:18;;;;;;;12.77;8.48;;;-0.90;99.90;;;;;;5016625;28;20200;-88
2023/03/12 01:05:45;;;;;;;7.25;6.55;;;-0.90;99.90;;;;;;5023565;28;20263;-87
2023/03/12 01:08:12;;;;;;;8.20;6.80;;;-0.80;99.90;;;;;;5009710;28;20444;-87
2023/03/12 01:10:42;;;;;;;8.52;6.95;;;-0.70;99.90;;;;;;5023023;28;20209;-89
2023/03/12 01:13:09;;;;;;;13.63;7.55;;;-0.70;99.90;;;;;;5026730;28;20193;-88
2023/03/12 01:15:37;;;;;;;8.15;7.30;;;-0.60;99.90;;;;;;5010795;28;20211;-90
2023/03/12 01:18:04;;;;;;;12.30;7.25;;;-0.80;99.90;;;;;;5008559;28;20204;-88
2023/03/12 01:20:31;;;;;;;7.72;6.78;;;-0.70;99.90;;;;;;5023242;28;20200;-86
2023/03/12 01:23:01;;;;;;;10.60;6.63;;;-0.80;99.90;;;;;;5012660;28;20213;-87
2023/03/12 01:25:28;;;;;;;10.48;7.10;;;-0.70;99.90;;;;;;5020553;28;20220;-87
2023/03/12 01:27:54;;;;;;;8.57;6.70;;;-0.80;99.90;;;;;;5006632;28;20201;-88
2023/03/12 01:30:22;;;;;;;8.90;5.63;;;-0.80;99.90;;;;;;5024670;28;20200;-89
2023/03/12 01:32:51;;;;;;;6.18;5.57;;;-0.90;99.90;;;;;;5029587;28;20297;-87
2023/03/12 01:35:18;;;;;;;15.40;5.50;;;-1.00;99.90;;;;;;5032948;28;20216;-85
2023/03/12 01:37:45;;;;;;;8.75;5.45;;;-0.90;99.90;;;;;;5032675;28;20193;-85
2023/03/12 01:40:20;;;;;;;7.80;5.40;;;-0.90;99.90;;;;;;5015527;28;20197;-86
2023/03/12 01:42:52;;;;;;;10.00;6.25;;;-1.00;99.90;;;;;;5011118;28;20227;-84
2023/03/12 01:45:54;;;;;;;6.65;4.95;;;-0.90;99.90;;;;;;5010666;28;20236;-86
2023/03/12 01:48:22;;;;;;;5.38;4.63;;;-0.80;99.90;;;;;;5024694;28;20212;-85
2023/03/12 01:50:49;;;;;;;5.30;4.25;;;-0.80;99.90;;;;;;5019655;28;20177;-86
2023/03/12 01:53:16;;;;;;;7.15;6.40;;;-0.80;99.90;;;;;;5021026;28;20217;-88
2023/03/12 01:55:44;;;;;;;7.18;4.82;;;-0.70;99.90;;;;;;5037376;28;20200;-89
2023/03/12 01:58:14;;;;;;;9.98;4.40;;;-0.70;99.90;;;;;;5038309;28;20191;-88
2023/03/12 02:00:41;;;;;;;7.97;4.65;;;-0.40;99.90;;;;;;4987398;28;20264;-87
2023/03/12 02:03:09;;;;;;;5.53;4.47;;;-0.80;99.90;;;;;;5028717;28;20208;-84
2023/03/12 02:05:59;;;;;;;5.70;5.20;;;-0.70;99.90;;;;;;5030857;28;20240;-88
2023/03/12 02:08:27;;;;;;;5.78;4.75;;;-0.90;99.90;;;;;;5031018;28;20512;-89
2023/03/12 02:10:54;;;;;;;12.45;6.13;;;-0.90;99.90;;;;;;5035345;28;20240;-87
2023/03/12 02:13:21;;;;;;;8.48;4.15;;;-0.80;99.90;;;;;;5028980;28;20216;-89
2023/03/12 02:15:49;;;;;;;4.93;3.95;;;-0.80;99.90;;;;;;5030091;28;20216;-85
2023/03/12 02:18:20;;;;;;;8.07;4.50;;;-0.80;99.90;;;;;;5031709;28;20208;-88
2023/03/12 02:21:05;;;;;;;4.55;4.15;;;-0.80;99.90;;;;;;5016439;28;20232;-87
2023/03/12 02:24:00;;;;;;;9.63;3.63;;;-1.00;99.90;;;;;;5035790;28;20205;-86
2023/03/12 02:26:28;;;;;;;7.68;3.53;;;-0.90;99.90;;;;;;5036046;28;20233;-86
2023/03/12 02:28:57;;;;;;;4.55;3.10;;;-0.80;99.90;;;;;;5032511;28;20220;-87
2023/03/12 02:31:30;;;;;;;6.28;3.65;;;-0.90;99.90;;;;;;5030716;28;20216;-88
2023/03/12 02:33:59;;;;;;;5.30;3.38;;;-0.80;99.90;;;;;;5027875;28;20215;-87
2023/03/12 02:36:28;;;;;;;4.70;4.13;;;-0.90;99.90;;;;;;5007904;28;20610;-87
2023/03/12 02:38:55;;;;;;;5.53;3.10;;;-0.80;99.90;;;;;;5014190;28;20205;-86
2023/03/12 02:41:23;;;;;;;4.95;3.58;;;-0.80;99.90;;;;;;5030739;28;20236;-87
2023/03/12 02:43:53;;;;;;;3.85;3.00;;;-0.70;99.90;;;;;;5016341;28;20227;-87
2023/03/12 02:46:20;;;;;;;4.63;3.10;;;-0.70;99.90;;;;;;5026724;28;20232;-86
2023/03/12 02:48:47;;;;;;;10.38;3.78;;;-0.80;99.90;;;;;;5029510;28;20240;-87
2023/03/12 02:51:14;;;;;;;11.13;2.90;;;-0.80;99.90;;;;;;5024876;28;20232;-89
2023/03/12 02:53:41;;;;;;;4.68;3.13;;;-0.70;99.90;;;;;;5028361;28;20485;-87
2023/03/12 02:56:08;;;;;;;4.20;3.00;;;-0.70;99.90;;;;;;5003417;28;20206;-87
2023/03/12 02:58:36;;;;;;;4.13;2.70;;;-0.70;99.90;;;;;;5014636;28;20268;-87
2023/03/12 03:01:03;;;;;;;3.45;3.03;;;-0.70;99.90;;;;;;5013424;28;20276;-86
2023/03/12 03:03:30;;;;;;;4.70;2.50;;;-0.80;99.90;;;;;;5031194;28;20201;-86
2023/03/12 03:08:28;;;;;;;2.65;2.45;;;-0.70;99.90;;;;;;4959831;28;20222;-85
2023/03/12 03:10:55;;;;;;;3.67;2.72;;;-0.60;99.90;;;;;;4949212;28;20276;-85
2023/03/12 03:13:22;;;;;;;3.20;2.53;;;-0.40;99.90;;;;;;4938905;28;20383;-86
2023/03/12 03:15:49;;;;;;;4.03;2.67;;;-0.70;99.90;;;;;;4959844;28;20207;-85
2023/03/12 03:18:16;;;;;;;4.82;3.35;;;-0.80;99.90;;;;;;4942014;28;20234;-86
2023/03/12 03:20:43;;;;;;;3.80;2.65;;;-0.70;99.90;;;;;;4957301;28;20191;-86
2023/03/12 03:23:11;;;;;;;3.20;2.53;;;-0.80;99.90;;;;;;4950989;28;20199;-87
2023/03/12 03:25:38;;;;;;;2.95;2.60;;;-0.80;99.90;;;;;;4970121;28;20223;-87
2023/03/12 03:28:05;;;;;;;4.00;3.15;;;-0.80;99.90;;;;;;4962861;28;20208;-87
2023/03/12 03:30:35;;;;;;;3.75;3.15;;;-0.80;99.90;;;;;;4962426;28;20212;-85
2023/03/12 03:33:03;;;;;;;3.22;2.30;;;-0.70;99.90;;;;;;4960974;28;20217;-85
2023/03/12 03:35:37;;;;;;;2.63;2.42;;;0.10;99.90;;;;;;4939705;28;20214;-85
2023/03/12 03:38:11;;;;;;;5.30;2.72;;;-0.80;99.90;;;;;;4950058;28;20196;-88
2023/03/12 03:40:38;;;;;;;3.22;2.75;;;-0.70;99.90;;;;;;4947670;29;20204;-86
2023/03/12 03:43:06;;;;;;;6.78;3.55;;;-0.10;99.90;;;;;;4953513;28;20215;-87
2023/03/12 03:45:33;;;;;;;2.63;2.42;;;-0.70;99.90;;;;;;4938086;28;20278;-86
2023/03/12 03:48:00;;;;;;;3.97;3.08;;;-0.70;99.90;;;;;;4929878;29;20223;-90
2023/03/12 03:50:28;;;;;;;3.10;2.45;;;-0.80;99.90;;;;;;4929103;28;20232;-86
2023/03/12 03:52:55;;;;;;;2.78;2.40;;;-0.70;99.90;;;;;;4932345;29;20208;-86
2023/03/12 03:55:23;;;;;;;7.43;3.50;;;-0.70;99.90;;;;;;4954209;28;20204;-87
2023/03/12 03:57:50;;;;;;;8.25;4.78;;;-0.80;99.90;;;;;;4937843;29;20212;-88
2023/03/12 04:00:17;;;;;;;4.97;2.80;;;-0.80;99.90;;;;;;4965780;28;20215;-88
2023/03/12 04:02:45;;;;;;;3.45;2.22;;;-0.80;99.90;;;;;;5142249;22;20268;-89
2023/03/12 04:05:14;;;;;;;5.57;2.35;;;-0.90;99.90;;;;;;5105486;23;20316;-87
2023/03/12 04:07:42;;;;;;;7.05;2.47;;;-0.60;99.90;;;;;;4998612;28;20212;-87
2023/03/12 04:10:12;;;;;;;3.63;2.50;;;-0.60;99.90;;;;;;5023596;28;20205;-86
2023/03/12 04:12:39;;;;;;;5.40;3.30;;;-0.60;99.90;;;;;;5023508;28;20505;-87
2023/03/12 04:15:07;;;;;;;3.65;2.15;;;-0.60;99.90;;;;;;5022404;28;20228;-87
2023/03/12 04:17:34;;;;;;;8.13;2.95;;;-0.60;99.90;;;;;;5003911;28;20316;-87
2023/03/12 04:20:06;;;;;;;2.28;2.08;;;-0.50;99.90;;;;;;5023348;28;20211;-88
2023/03/12 04:22:34;;;;;;;3.50;2.40;;;-0.40;99.90;;;;;;5041041;28;20250;-88
2023/03/12 04:25:03;;;;;;;6.28;2.75;;;-0.30;99.90;;;;;;5030022;28;20207;-87
2023/03/12 04:27:30;;;;;;;3.08;1.98;;;-0.10;99.90;;;;;;5033448;28;20205;-87
2023/03/12 04:29:58;;;;;;;4.63;1.75;;;0.10;99.90;;;;;;4980985;28;20210;-90
2023/03/12 04:32:25;;;;;;;10.57;2.70;;;0.00;99.90;;;;;;5022926;28;20488;-88
2023/03/12 04:34:52;;;;;;;2.58;2.10;;;0.10;99.90;;;;;;5080996;23;20244;-88
2023/03/12 04:37:20;;;;;;;1.90;1.65;;;0.30;99.90;;;;;;5002768;28;20252;-89
2023/03/12 04:39:50;;;;;;;3.38;2.40;;;0.00;99.90;;;;;;5008693;28;20185;-89
2023/03/12 04:42:18;;;;;;;4.85;2.83;;;0.30;99.90;;;;;;5034836;28;20213;-88
2023/03/12 04:44:45;;;;;;;2.92;2.35;;;0.20;99.90;;;;;;5032948;28;20201;-90
2023/03/12 04:47:12;;;;;;;2.50;1.95;;;0.10;99.90;;;;;;5024291;28;20212;-89
2023/03/12 04:49:39;;;;;;;6.55;2.65;;;0.10;99.90;;;;;;5140221;23;20221;-92
2023/03/12 06:51:15;;;;;;;3.08;1.50;;;5.60;99.90;;;;;;4978201;23;20240;-89
2023/03/12 06:53:44;;;;;;;2.08;1.75;;;5.90;99.90;;;;;;4902977;29;20210;-87
2023/03/12 06:56:12;;;;;;;6.07;2.17;;;6.30;99.90;;;;;;4927688;29;20213;-86
2023/03/12 06:58:40;;;;;;;1.73;1.25;;;6.50;99.90;;;;;;4933342;29;20377;-85
2023/03/12 07:01:08;;;;;;;1.02;0.93;;;6.50;99.90;;;;;;4927452;29;20203;-85
2023/03/12 07:03:36;;;;;;;1.58;1.42;;;6.50;99.90;;;;;;4930275;29;20186;-83
2023/03/12 07:06:11;;;;;;;1.40;1.30;;;6.50;99.90;;;;;;4922545;29;20230;-86
2023/03/12 07:08:44;;;;;;;2.17;1.75;;;6.80;99.90;;;;;;4920998;29;20219;-86
2023/03/12 07:11:12;;;;;;;5.28;2.03;;;6.60;99.90;;;;;;4917172;29;20201;-88
2023/03/12 07:13:43;;;;;;;1.83;1.42;;;7.40;99.90;;;;;;4926176;29;20464;-88
2023/03/12 07:16:11;;;;;;;2.42;1.65;;;7.40;99.90;;;;;;4932498;29;20273;-86
2023/03/12 07:18:40;;;;;;;2.08;1.40;;;7.40;99.90;;;;;;4923506;29;20243;-85
2023/03/12 07:21:07;;;;;;;3.78;3.05;;;7.70;99.90;;;;;;4925226;29;20219;-87
2023/03/12 07:23:34;;;;;;;3.50;1.83;;;8.00;99.90;;;;;;4931799;29;20235;-86
2023/03/12 07:26:04;;;;;;;2.50;1.52;;;7.90;99.90;;;;;;4924589;29;20233;-85
2023/03/12 07:28:31;;;;;;;3.28;1.60;;;7.90;99.90;;;;;;4918677;29;20670;-85
2023/03/12 07:31:03;;;;;;;1.70;1.30;;;7.90;99.90;;;;;;4920410;29;20211;-82
2023/03/12 07:33:32;;;;;;;4.93;2.13;;;8.20;99.90;;;;;;4924300;29;20265;-82
2023/03/12 07:36:00;;;;;;;7.53;2.05;;;7.40;99.90;;;;;;4920483;29;20204;-80
2023/03/12 07:38:27;;;;;;;3.15;1.75;;;6.80;99.90;;;;;;4916425;29;20224;-81
2023/03/12 07:40:57;;;;;;;4.68;1.95;;;6.10;99.90;;;;;;4909305;29;20553;-82
2023/03/12 07:43:24;;;;;;;3.28;1.50;;;5.70;99.90;;;;;;4917679;29;20213;-82
2023/03/12 07:45:52;;;;;;;4.45;2.60;;;5.50;99.90;;;;;;4918360;29;20236;-84
2023/03/12 07:48:43;;;;;;;3.10;1.45;;;5.20;99.90;;;;;;4915254;29;20223;-85
2023/03/12 07:51:20;;;;;;;4.35;1.42;;;5.10;99.90;;;;;;4910161;29;20222;-83
2023/03/12 07:53:50;;;;;;;3.25;1.70;;;4.90;99.90;;;;;;4917574;29;20228;-86
2023/03/12 07:56:20;;;;;;;2.20;1.73;;;4.70;99.90;;;;;;4909277;29;20221;-82
2023/03/12 07:58:48;;;;;;;1.88;1.35;;;4.40;99.90;;;;;;4912247;29;20217;-84
2023/03/12 08:01:15;;;;;;;4.68;2.58;;;4.30;99.90;;;;;;4916836;29;20212;-84
2023/03/12 08:03:42;;;;;;;12.63;2.40;;;4.30;99.90;;;;;;4913316;29;20278;-83
2023/03/12 08:06:33;;;;;;;4.10;2.28;;;4.50;99.90;;;;;;4919196;29;20236;-83
2023/03/12 08:09:11;;;;;;;3.92;2.00;;;4.50;99.90;;;;;;4913390;29;20212;-83
2023/03/12 08:11:41;;;;;;;2.15;1.85;;;4.50;99.90;;;;;;4916880;29;20252;-83
2023/03/12 08:14:08;;;;;;;3.05;1.70;;;4.50;99.90;;;;;;4905983;29;20413;-82
2023/03/12 08:16:35;;;;;;;3.40;1.90;;;4.70;99.90;;;;;;4911530;29;20219;-82
2023/03/12 08:19:02;;;;;;;3.35;2.17;;;4.70;99.90;;;;;;4918558;29;20207;-85
2023/03/12 08:21:28;;;;;;;2.90;2.10;;;4.60;99.90;;;;;;4918522;29;20655;-83
2023/03/12 08:23:56;;;;;;;3.53;2.08;;;4.50;99.90;;;;;;4912324;29;20396;-82
2023/03/12 08:26:22;;;;;;;4.50;2.15;;;4.70;99.90;;;;;;4906578;29;20283;-82
2023/03/12 08:28:50;;;;;;;3.80;2.17;;;4.80;99.90;;;;;;4911586;29;20245;-83
2023/03/12 08:31:19;;;;;;;2.10;2.00;;;5.00;99.90;;;;;;4913953;29;20381;-84
2023/03/12 08:33:48;;;;;;;7.82;2.15;;;5.40;99.90;;;;;;4919997;29;20209;-84
2023/03/12 08:36:15;;;;;;;9.23;2.35;;;5.70;99.90;;;;;;4922276;29;20212;-83
2023/03/12 08:38:47;;;;;;;3.15;2.28;;;5.80;99.90;;;;;;4921642;29;20212;-83
2023/03/12 08:41:17;;;;;;;4.30;2.58;;;5.90;99.90;;;;;;4914772;29;20236;-82
2023/03/12 08:43:45;;;;;;;5.07;2.50;;;5.90;99.90;;;;;;4921059;29;20215;-82
2023/03/12 08:46:13;;;;;;;2.83;2.47;;;5.60;99.90;;;;;;4921703;29;20240;-84
2023/03/12 08:48:40;;;;;;;3.95;2.45;;;5.70;99.90;;;;;;4917823;29;20209;-82
2023/03/12 08:51:07;;;;;;;7.25;2.97;;;6.20;99.90;;;;;;4915179;29;20219;-83
2023/03/12 08:53:36;;;;;;;3.75;1.77;;;6.30;99.90;;;;;;4919347;29;20219;-83
2023/03/12 08:56:04;;;;;;;3.95;2.60;;;6.60;99.90;;;;;;4918154;29;20451;-83
2023/03/12 08:58:31;;;;;;;4.50;1.95;;;6.60;99.90;;;;;;4921200;29;20216;-81
2023/03/12 09:00:58;;;;;;;2.67;2.30;;;6.30;99.90;;;;;;4919574;29;20215;-82
2023/03/12 09:03:25;;;;;;;3.83;3.33;;;6.30;99.90;;;;;;4919354;29;20206;-84
2023/03/12 09:06:09;;;;;;;7.75;2.70;;;6.20;99.90;;;;;;4917522;29;20287;-82
2023/03/12 09:08:36;;;;;;;5.47;2.88;;;6.50;99.90;;;;;;4908429;29;20516;-83
2023/03/12 09:11:03;;;;;;;2.88;2.10;;;6.40;99.90;;;;;;4915456;29;20516;-81
2023/03/12 09:13:29;;;;;;;2.65;2.20;;;6.70;99.90;;;;;;4912454;29;20592;-82
2023/03/12 09:16:16;;;;;;;2.10;1.90;;;6.80;99.90;;;;;;4909948;29;20208;-81
2023/03/12 09:18:43;;;;;;;4.88;3.10;;;7.10;99.90;;;;;;4918920;29;20209;-80
2023/03/12 09:21:10;;;;;;;4.20;3.40;;;7.50;99.90;;;;;;4917127;29;20215;-81
2023/03/12 09:23:37;;;;;;;3.45;2.17;;;7.90;99.90;;;;;;4919359;29;20460;-82
2023/03/12 09:26:04;;;;;;;4.90;2.47;;;7.70;99.90;;;;;;4917417;29;20214;-82
2023/03/12 09:28:31;;;;;;;4.03;1.90;;;7.40;99.90;;;;;;4920923;29;20532;-81
2023/03/12 09:31:00;;;;;;;3.75;3.45;;;7.50;99.90;;;;;;4911067;29;20213;-81
2023/03/12 09:33:28;;;;;;;5.82;2.65;;;7.50;99.90;;;;;;4918647;29;20385;-82
2023/03/12 09:35:56;;;;;;;3.75;2.03;;;7.30;99.90;;;;;;4916325;29;20247;-82
2023/03/12 09:38:24;;;;;;;2.20;1.98;;;7.00;99.90;;;;;;4920514;29;20278;-81
2023/03/12 09:40:52;;;;;;;3.03;1.88;;;7.10;99.90;;;;;;4918572;29;20212;-78
2023/03/12 09:43:29;;;;;;;4.20;2.38;;;6.90;99.90;;;;;;4917005;29;20205;-81
2023/03/12 09:45:56;;;;;;;4.25;2.63;;;7.00;99.90;;;;;;4912191;29;20357;-80
2023/03/12 09:48:36;;;;;;;3.78;2.53;;;7.20;99.90;;;;;;4917385;29;20209;-79
2023/03/12 09:51:19;;;;;;;4.20;2.38;;;6.90;99.90;;;;;;4918332;29;20208;-79
2023/03/12 09:53:51;;;;;;;2.13;1.92;;;6.70;99.90;;;;;;4919409;29;20212;-79
2023/03/12 09:56:19;;;;;;;8.32;3.15;;;6.50;99.90;;;;;;4914931;29;20216;-80
2023/03/12 09:58:47;;;;;;;5.75;2.28;;;6.30;99.90;;;;;;4913958;29;20227;-79
2023/03/12 10:01:29;;;;;;;1.60;1.50;;;6.20;99.90;;;;;;4913549;29;20213;-79
2023/03/12 10:04:20;;;;;;;3.28;1.65;;;6.20;99.90;;;;;;4911963;29;20219;-79
2023/03/12 10:07:14;;;;;;;5.18;1.80;;;6.40;99.90;;;;;;4914344;29;20514;-80
2023/03/12 10:10:06;;;;;;;3.28;2.40;;;6.50;99.90;;;;;;4931198;29;20235;-82
2023/03/12 10:12:53;;;;;;;3.97;2.30;;;6.30;99.90;;;;;;4909594;29;20216;-82
2023/03/12 10:15:42;;;;;;;8.23;2.90;;;6.20;99.90;;;;;;4914829;29;20205;-78
2023/03/12 10:18:15;;;;;;;6.97;3.20;;;6.00;99.90;;;;;;4920346;29;20268;-80
2023/03/12 10:21:06;;;;;;;4.00;2.47;;;5.90;99.90;;;;;;4920907;29;20228;-80
2023/03/12 10:24:05;;;;;;;5.93;2.45;;;5.90;99.90;;;;;;4911871;29;20269;-82
2023/03/12 10:26:42;;;;;;;5.18;2.50;;;6.00;99.90;;;;;;4912911;29;20242;-78
2023/03/12 10:29:27;;;;;;;4.32;2.53;;;6.30;99.90;;;;;;4908479;29;20212;-80
2023/03/12 10:32:12;;;;;;;3.50;2.38;;;6.50;99.90;;;;;;4915203;29;20208;-80
2023/03/12 10:34:46;;;;;;;2.75;2.10;;;6.60;99.90;;;;;;4911121;29;20612;-77
2023/03/12 10:37:27;;;;;;;6.75;2.50;;;6.60;99.90;;;;;;4913372;29;20212;-82
2023/03/12 10:39:54;;;;;;;3.38;2.70;;;6.60;99.90;;;;;;4917069;29;20628;-81
2023/03/12 10:42:24;;;;;;;2.95;2.65;;;6.40;99.90;;;;;;4907447;29;20382;-80
2023/03/12 10:44:55;;;;;;;2.90;1.95;;;6.40;99.90;;;;;;4908941;29;20214;-78
2023/03/12 10:47:34;;;;;;;3.70;2.00;;;6.40;99.90;;;;;;4916949;29;20293;-80
2023/03/12 10:50:21;;;;;;;3.58;2.60;;;6.60;99.90;;;;;;4908964;29;20241;-80
2023/03/12 10:52:51;;;;;;;5.05;2.58;;;6.90;99.90;;;;;;4909822;29;20654;-80
2023/03/12 10:55:29;;;;;;;1.88;1.77;;;7.20;99.90;;;;;;4909517;29;20224;-80
2023/03/12 10:57:56;;;;;;;5.97;3.15;;;7.20;99.90;;;;;;4908749;29;20212;-79
2023/03/12 11:00:29;;;;;;;2.78;2.42;;;7.10;99.90;;;;;;4905361;29;20213;-80
2023/03/12 11:03:05;;;;;;;3.42;2.30;;;6.90;99.90;;;;;;4916111;29;20259;-79
2023/03/12 11:05:34;;;;;;;4.03;2.58;;;6.80;99.90;;;;;;4911357;29;20438;-81
2023/03/12 11:08:03;;;;;;;3.00;2.10;;;6.70;99.90;;;;;;4906972;29;20567;-80
2023/03/12 11:10:45;;;;;;;3.75;2.25;;;6.70;99.90;;;;;;4913140;29;20217;-79
2023/03/12 11:13:37;;;;;;;2.92;2.10;;;6.60;99.90;;;;;;4915698;29;20212;-77
2023/03/12 11:16:15;;;;;;;3.10;2.80;;;6.50;99.90;;;;;;4910088;29;20208;-79
2023/03/12 11:18:55;;;;;;;5.15;2.90;;;6.80;99.90;;;;;;4914158;29;20275;-78
2023/03/12 11:21:26;;;;;;;4.57;2.60;;;6.70;99.90;;;;;;4907568;29;20676;-78
2023/03/12 11:23:55;;;;;;;4.75;2.50;;;7.00;99.90;;;;;;4915214;29;20208;-79
2023/03/12 11:26:40;;;;;;;4.13;2.15;;;6.80;99.90;;;;;;4916767;29;20209;-79
2023/03/12 11:29:31;;;;;;;4.10;2.35;;;7.00;99.90;;;;;;4912407;29;20519;-77
2023/03/12 11:32:14;;;;;;;4.75;3.97;;;7.10;99.90;;;;;;4917741;29;20212;-78
2023/03/12 11:34:41;;;;;;;5.93;2.30;;;7.20;99.90;;;;;;4923118;29;20526;-80
2023/03/12 11:37:14;;;;;;;2.80;2.40;;;7.40;99.90;;;;;;4935280;29;20195;-80
2023/03/12 11:40:09;;;;;;;3.40;2.55;;;7.40;99.90;;;;;;4924651;29;20197;-80
2023/03/12 11:42:51;;;;;;;3.22;2.65;;;7.10;99.90;;;;;;4924865;29;20203;-81
2023/03/12 11:45:39;;;;;;;3.13;2.83;;;7.20;99.90;;;;;;4916931;29;20252;-81
2023/03/12 11:48:27;;;;;;;6.47;2.70;;;7.30;99.90;;;;;;4905438;29;20230;-81
2023/03/12 11:51:29;;;;;;;4.57;2.95;;;7.70;99.90;;;;;;4915075;29;20212;-79
2023/03/12 11:54:14;;;;;;;7.40;3.67;;;8.10;99.90;;;;;;4918473;29;20286;-80
2023/03/12 11:56:45;;;;;;;2.72;1.92;;;8.20;99.90;;;;;;4914702;29;20229;-79
2023/03/12 11:59:37;;;;;;;4.40;2.42;;;8.10;99.90;;;;;;4920102;29;20268;-81
2023/03/12 12:02:37;;;;;;;2.92;2.30;;;8.30;99.90;;;;;;4921093;29;20217;-79
2023/03/12 12:05:29;;;;;;;2.33;1.95;;;8.10;99.90;;;;;;4913969;29;20217;-80
2023/03/12 12:08:22;;;;;;;9.05;2.50;;;8.10;99.90;;;;;;4910617;29;20240;-83
2023/03/12 12:11:13;;;;;;;4.70;2.55;;;8.40;99.90;;;;;;4912457;29;20437;-79
2023/03/12 12:14:12;;;;;;;3.97;2.28;;;8.80;99.90;;;;;;4908456;29;20198;-79
2023/03/12 12:16:56;;;;;;;3.15;2.85;;;8.80;99.90;;;;;;4919981;29;20206;-81
2023/03/12 12:19:24;;;;;;;4.40;2.17;;;9.10;99.90;;;;;;4917496;29;20215;-79
2023/03/12 12:22:09;;;;;;;4.05;2.38;;;9.10;99.90;;;;;;4915501;29;20637;-80
2023/03/12 12:24:41;;;;;;;7.22;2.55;;;8.90;99.90;;;;;;4919487;29;20216;-81
2023/03/12 12:27:08;;;;;;;2.67;2.47;;;8.90;99.90;;;;;;4915406;29;20224;-81
2023/03/12 12:29:47;;;;;;;9.85;2.50;;;8.90;99.90;;;;;;4913821;29;20638;-81
2023/03/12 12:32:25;;;;;;;8.55;3.60;;;9.00;99.90;;;;;;4905180;29;20233;-81
2023/03/12 12:35:19;;;;;;;4.40;2.10;;;9.00;99.90;;;;;;4910509;29;20218;-80
2023/03/12 12:38:01;;;;;;;2.40;2.20;;;9.00;99.90;;;;;;4910469;29;20223;-81
2023/03/12 12:40:37;;;;;;;3.47;3.13;;;9.10;99.90;;;;;;4919368;29;20271;-79
2023/03/12 12:43:26;;;;;;;8.13;3.03;;;9.40;99.90;;;;;;4913560;29;20216;-79
2023/03/12 12:45:58;;;;;;;4.18;2.53;;;9.50;99.90;;;;;;4916865;29;20220;-82
2023/03/12 12:48:38;;;;;;;2.33;2.13;;;9.20;99.90;;;;;;4916505;29;20537;-81
2023/03/12 12:51:07;;;;;;;6.03;2.65;;;8.70;99.90;;;;;;4917449;29;20592;-80
2023/03/12 12:53:53;;;;;;;4.53;2.90;;;8.60;99.90;;;;;;4916660;29;20255;-80
2023/03/12 12:56:26;;;;;;;6.88;3.25;;;8.70;99.90;;;;;;4911311;29;20504;-80
2023/03/12 12:59:24;;;;;;;4.28;2.97;;;9.00;99.90;;;;;;4919072;29;20264;-81
2023/03/12 13:01:56;;;;;;;3.40;2.13;;;9.30;99.90;;;;;;4908928;29;20256;-79
2023/03/12 13:04:35;;;;;;;3.95;2.88;;;9.40;99.90;;;;;;4916345;29;20819;-81
2023/03/12 13:07:11;;;;;;;3.72;2.90;;;9.60;99.90;;;;;;4917152;29;20385;-81
2023/03/12 13:09:51;;;;;;;6.15;2.83;;;9.50;99.90;;;;;;4918647;29;20433;-83
2023/03/12 13:12:17;;;;;;;7.25;2.45;;;9.10;99.90;;;;;;4920424;29;20259;-82
2023/03/12 13:14:45;;;;;;;3.60;3.30;;;9.10;99.90;;;;;;4920531;29;20505;-81
2023/03/12 13:17:33;;;;;;;5.88;1.73;;;9.10;99.90;;;;;;4910603;29;20216;-82
2023/03/12 13:20:04;;;;;;;6.70;3.10;;;9.20;99.90;;;;;;4916793;29;20211;-83
2023/03/12 13:22:31;;;;;;;2.38;1.88;;;9.60;99.90;;;;;;4905783;29;20219;-81
2023/03/12 13:25:20;;;;;;;6.80;2.50;;;9.70;99.90;;;;;;4909600;29;20224;-81
2023/03/12 13:27:57;;;;;;;2.47;2.28;;;9.90;99.90;;;;;;4903951;29;20261;-81
2023/03/12 13:30:46;;;;;;;3.22;2.80;;;10.20;99.90;;;;;;4908561;29;20224;-80
2023/03/12 13:33:17;;;;;;;3.42;2.13;;;10.30;99.90;;;;;;4907231;29;20217;-81
2023/03/12 13:36:02;;;;;;;6.13;3.67;;;10.30;99.90;;;;;;4921199;29;20215;-79
2023/03/12 13:38:35;;;;;;;5.20;3.00;;;10.50;99.90;;;;;;4912262;29;20261;-81
2023/03/12 13:41:04;;;;;;;5.10;2.90;;;10.30;99.90;;;;;;4912501;29;20251;-81
2023/03/12 13:43:45;;;;;;;2.58;2.38;;;10.10;99.90;;;;;;4926609;29;20488;-82
2023/03/12 13:46:15;;;;;;;3.92;3.53;;;10.00;99.90;;;;;;4916059;29;20256;-80
2023/03/12 13:48:47;;;;;;;3.70;2.65;;;10.00;99.90;;;;;;4909549;29;20829;-80
2023/03/12 13:51:17;;;;;;;6.38;2.15;;;10.00;99.90;;;;;;4910145;29;20235;-78
2023/03/12 13:53:54;;;;;;;4.43;2.58;;;9.70;99.90;;;;;;4908723;29;20440;-81
2023/03/12 13:56:28;;;;;;;6.03;4.15;;;9.80;99.90;;;;;;4912358;29;20204;-80
2023/03/12 13:59:01;;;;;;;2.55;2.15;;;10.00;99.90;;;;;;4908368;29;20208;-82
2023/03/12 14:01:41;;;;;;;3.47;2.40;;;10.10;99.90;;;;;;4912940;29;20216;-82
2023/03/12 14:04:19;;;;;;;7.53;3.03;;;10.20;99.90;;;;;;4912728;29;20208;-80
2023/03/12 14:07:01;;;;;;;3.67;3.05;;;10.00;99.90;;;;;;4906545;29;20556;-82
2023/03/12 14:09:47;;;;;;;3.17;2.17;;;10.00;99.90;;;;;;4915564;29;20216;-81
2023/03/12 14:12:53;;;;;;;3.55;2.85;;;9.90;99.90;;;;;;4907879;29;20208;-81
2023/03/12 14:15:38;;;;;;;3.00;2.10;;;10.10;99.90;;;;;;4895054;29;20381;-83
2023/03/12 14:18:18;;;;;;;4.25;2.35;;;9.70;99.90;;;;;;4908308;29;20304;-80
2023/03/12 14:20:55;;;;;;;2.80;2.45;;;9.70;99.90;;;;;;4911550;29;20213;-82
2023/03/12 14:23:27;;;;;;;3.25;2.40;;;9.60;99.90;;;;;;4917105;29;20226;-82
2023/03/12 14:25:59;;;;;;;5.93;2.70;;;9.40;99.90;;;;;;4912261;29;20501;-80
2023/03/12 14:28:32;;;;;;;6.13;4.20;;;9.30;99.90;;;;;;4914327;29;20283;-81
2023/03/12 14:31:08;;;;;;;6.40;3.00;;;9.40;99.90;;;;;;4915784;29;20248;-81
2023/03/12 14:34:02;;;;;;;8.23;4.30;;;9.30;99.90;;;;;;4911535;29;20208;-82
2023/03/12 14:36:41;;;;;;;5.00;2.80;;;9.50;99.90;;;;;;4910075;29;20232;-81
2023/03/12 14:39:27;;;;;;;6.72;2.55;;;9.50;99.90;;;;;;4910205;29;20211;-82
2023/03/12 14:42:05;;;;;;;5.78;3.90;;;9.40;99.90;;;;;;4910670;29;20212;-82
2023/03/12 14:44:35;;;;;;;3.65;3.05;;;9.20;99.90;;;;;;4912929;29;20283;-82
2023/03/12 14:47:11;;;;;;;13.20;3.85;;;9.20;99.90;;;;;;4913083;29;20201;-82
2023/03/12 14:49:46;;;;;;;7.07;2.72;;;9.00;99.90;;;;;;4910616;29;20212;-82
2023/03/12 14:52:21;;;;;;;14.10;4.50;;;8.80;99.90;;;;;;4916735;29;20219;-81
2023/03/12 14:54:57;;;;;;;8.98;3.80;;;8.70;99.90;;;;;;4920740;29;20207;-80
2023/03/12 14:57:25;;;;;;;10.07;4.28;;;8.70;99.90;;;;;;4918573;29;20218;-81
2023/03/12 14:59:57;;;;;;;9.13;4.57;;;8.50;99.90;;;;;;4911088;29;20296;-81
2023/03/12 15:02:26;;;;;;;6.00;4.68;;;8.40;99.90;;;;;;4915210;29;20219;-80
2023/03/12 15:04:56;;;;;;;8.35;4.50;;;8.50;99.90;;;;;;4912055;29;20216;-82
2023/03/12 15:07:38;;;;;;;8.20;4.22;;;8.40;99.90;;;;;;4913840;29;20217;-83
2023/03/12 15:10:21;;;;;;;7.75;3.72;;;8.40;99.90;;;;;;4915741;29;20233;-83
2023/03/12 15:12:49;;;;;;;8.18;4.05;;;8.30;99.90;;;;;;4911862;29;20387;-81
2023/03/12 15:15:26;;;;;;;6.03;4.53;;;8.30;99.90;;;;;;4912703;29;20279;-81
2023/03/12 15:17:54;;;;;;;5.82;4.68;;;8.20;99.90;;;;;;4914211;29;20215;-82
2023/03/12 15:20:23;;;;;;;6.38;4.47;;;8.20;99.90;;;;;;4917794;29;20363;-82
2023/03/12 15:22:51;;;;;;;5.90;5.25;;;8.20;99.90;;;;;;4920884;29;20271;-82
2023/03/12 15:25:30;;;;;;;7.45;3.90;;;7.90;99.90;;;;;;4920260;29;20264;-82